createdAt,value
2023-01-22T00:01:05.017Z,13.50
2023-01-22T00:03:32.832Z,9.18
2023-01-22T00:06:00.282Z,9.85
2023-01-22T00:08:28.086Z,11.50
2023-01-22T00:10:56.421Z,13.63
2023-01-22T00:13:25.300Z,11.25
2023-01-22T00:15:56.579Z,11.82
2023-01-22T00:18:24.031Z,11.32
2023-01-22T00:20:54.348Z,9.57
2023-01-22T00:23:22.624Z,7.95
2023-01-22T00:25:49.956Z,6.88
2023-01-22T00:28:17.720Z,6.78
2023-01-22T00:30:44.969Z,6.18
2023-01-22T00:33:12.562Z,7.38
2023-01-22T00:35:40.028Z,5.50
2023-01-22T00:38:07.636Z,6.05
2023-01-22T00:40:34.797Z,7.15
2023-01-22T00:43:02.861Z,6.22
2023-01-22T00:45:31.002Z,7.20
2023-01-22T00:48:01.353Z,5.60
2023-01-22T00:50:28.908Z,6.28
2023-01-22T00:52:56.332Z,8.85
2023-01-22T00:55:23.833Z,6.15
2023-01-22T00:57:51.212Z,6.53
2023-01-22T01:00:20.294Z,5.90
2023-01-22T01:03:09.116Z,6.22
2023-01-22T01:05:36.823Z,7.15
2023-01-22T01:08:04.710Z,6.47
2023-01-22T01:10:32.365Z,6.07
2023-01-22T01:12:59.537Z,6.47
2023-01-22T01:15:27.357Z,8.23
2023-01-22T01:17:56.261Z,6.75
2023-01-22T01:20:23.799Z,7.28
2023-01-22T01:22:51.100Z,7.57
2023-01-22T01:25:18.564Z,8.70
2023-01-22T01:27:45.898Z,8.52
2023-01-22T01:30:13.524Z,10.55
2023-01-22T01:32:40.919Z,6.00
2023-01-22T01:35:09.059Z,7.75
2023-01-22T01:37:38.765Z,6.72
2023-01-22T01:40:07.084Z,8.38
2023-01-22T01:42:39.247Z,8.18
2023-01-22T01:45:28.469Z,7.15
2023-01-22T01:48:22.637Z,8.57
2023-01-22T01:50:58.173Z,9.00
2023-01-22T01:53:26.453Z,7.90
2023-01-22T01:55:56.738Z,8.68
2023-01-22T01:58:27.334Z,9.52
2023-01-22T02:00:59.956Z,9.60
2023-01-22T02:03:29.738Z,9.07
2023-01-22T02:05:58.193Z,7.97
2023-01-22T02:08:25.576Z,10.15
2023-01-22T02:10:54.286Z,9.38
2023-01-22T02:13:28.506Z,8.43
2023-01-22T02:15:56.135Z,9.82
2023-01-22T02:18:23.774Z,9.35
2023-01-22T02:21:00.762Z,10.20
2023-01-22T02:23:30.298Z,11.10
2023-01-22T02:25:58.985Z,9.07
2023-01-22T02:28:26.789Z,11.27
2023-01-22T02:30:56.221Z,11.27
2023-01-22T02:33:23.604Z,11.68
2023-01-22T02:35:50.913Z,12.52
2023-01-22T02:38:18.751Z,9.75
2023-01-22T02:40:49.453Z,10.77
2023-01-22T02:43:19.681Z,12.50
2023-01-22T02:45:47.120Z,13.55
2023-01-22T02:48:14.654Z,12.52
2023-01-22T02:50:42.002Z,12.82
2023-01-22T02:53:09.357Z,9.48
2023-01-22T02:55:38.903Z,13.55
2023-01-22T02:58:06.871Z,10.18
2023-01-22T03:00:34.271Z,11.10
2023-01-22T03:03:08.057Z,11.00
2023-01-22T03:05:35.744Z,10.40
2023-01-22T03:08:04.897Z,10.63
2023-01-22T03:10:32.437Z,10.95
2023-01-22T03:13:20.727Z,11.02
2023-01-22T03:16:13.752Z,10.77
2023-01-22T03:19:00.967Z,9.88
2023-01-22T03:21:28.610Z,10.05
2023-01-22T03:23:56.012Z,11.07
2023-01-22T03:26:24.806Z,12.23
2023-01-22T03:28:53.331Z,12.45
2023-01-22T03:31:21.742Z,11.55
2023-01-22T03:33:49.156Z,12.18
2023-01-22T03:36:16.554Z,10.73
2023-01-22T03:38:49.052Z,12.27
2023-01-22T03:41:20.745Z,11.63
2023-01-22T03:43:49.499Z,12.20
2023-01-22T03:46:20.724Z,8.60
2023-01-22T03:48:53.986Z,11.52
2023-01-22T03:51:22.358Z,10.75
2023-01-22T03:53:50.428Z,9.90
2023-01-22T03:56:20.830Z,9.15
2023-01-22T03:58:50.314Z,9.65
2023-01-22T04:01:20.867Z,12.75
2023-01-22T04:03:49.100Z,9.88
2023-01-22T04:06:16.372Z,9.80
2023-01-22T04:08:46.132Z,9.18
2023-01-22T04:11:14.610Z,8.45
2023-01-22T04:13:43.964Z,10.40
2023-01-22T04:16:12.892Z,10.93
2023-01-22T04:19:00.106Z,10.65
2023-01-22T04:21:49.143Z,11.20
2023-01-22T04:24:17.092Z,10.43
2023-01-22T04:26:44.503Z,12.18
2023-01-22T04:29:13.458Z,11.10
2023-01-22T04:31:41.089Z,11.80
2023-01-22T04:34:28.308Z,11.80
2023-01-22T04:37:08.683Z,10.98
2023-01-22T04:39:39.517Z,12.43
2023-01-22T04:42:06.941Z,15.63
2023-01-22T04:44:34.311Z,13.60
2023-01-22T04:47:01.550Z,13.20
2023-01-22T04:49:29.013Z,14.32
2023-01-22T04:51:58.488Z,14.35
2023-01-22T04:54:26.647Z,14.57
2023-01-22T04:56:54.056Z,15.90
2023-01-22T04:59:21.371Z,15.52
2023-01-22T05:01:51.112Z,16.95
2023-01-22T05:04:21.934Z,16.13
2023-01-22T05:06:49.873Z,14.48
2023-01-22T05:09:17.540Z,16.85
2023-01-22T05:11:52.117Z,16.75
2023-01-22T05:14:19.491Z,16.85
2023-01-22T05:16:49.309Z,17.77
2023-01-22T05:19:16.851Z,15.77
2023-01-22T05:21:44.609Z,14.70
2023-01-22T05:24:16.504Z,15.90
2023-01-22T05:26:43.899Z,17.75
2023-01-22T05:29:15.495Z,33.45
2023-01-22T05:32:05.858Z,20.83
2023-01-22T05:34:37.203Z,21.42
2023-01-22T05:37:05.223Z,18.17
2023-01-22T05:39:32.754Z,18.98
2023-01-22T05:42:03.233Z,16.60
2023-01-22T05:44:33.250Z,17.50
2023-01-22T05:47:01.463Z,15.32
2023-01-22T05:49:41.201Z,15.30
2023-01-22T05:52:11.210Z,15.60
2023-01-22T05:54:40.250Z,17.83
2023-01-22T05:57:08.523Z,16.17
2023-01-22T05:59:38.485Z,17.95
2023-01-22T06:02:08.326Z,18.73
2023-01-22T06:04:40.714Z,16.95
2023-01-22T06:07:18.646Z,18.25
2023-01-22T06:09:46.495Z,17.02
2023-01-22T06:12:16.119Z,16.90
2023-01-22T06:14:43.497Z,20.02
2023-01-22T06:17:12.404Z,16.40
2023-01-22T06:19:44.459Z,18.83
2023-01-22T06:22:12.480Z,15.95
2023-01-22T06:24:47.122Z,18.58
2023-01-22T06:27:16.703Z,17.02
2023-01-22T06:29:55.933Z,15.15
2023-01-22T06:32:23.471Z,16.98
2023-01-22T06:34:53.101Z,16.80
2023-01-22T06:37:21.943Z,17.27
2023-01-22T06:39:50.303Z,17.30
2023-01-22T06:42:38.319Z,16.92
2023-01-22T06:45:07.535Z,21.17
2023-01-22T06:47:35.874Z,20.35
2023-01-22T06:50:04.586Z,20.65
2023-01-22T06:52:31.843Z,19.73
2023-01-22T06:54:59.773Z,16.85
2023-01-22T06:57:27.171Z,17.52
2023-01-22T06:59:54.825Z,17.88
2023-01-22T07:02:22.318Z,17.85
2023-01-22T07:04:49.733Z,17.48
2023-01-22T07:07:16.975Z,16.88
2023-01-22T07:09:44.141Z,16.38
2023-01-22T07:12:11.386Z,16.73
2023-01-22T07:14:38.700Z,16.17
2023-01-22T07:17:06.026Z,16.75
2023-01-22T07:19:33.463Z,16.00
2023-01-22T07:22:00.724Z,16.58
2023-01-22T07:24:27.994Z,17.38
2023-01-22T07:26:55.574Z,15.48
2023-01-22T07:29:22.883Z,16.58
2023-01-22T07:31:50.328Z,16.33
2023-01-22T07:34:17.530Z,16.65
2023-01-22T07:36:46.905Z,18.23
2023-01-22T07:39:14.266Z,16.98
2023-01-22T07:41:42.005Z,17.25
2023-01-22T07:44:12.154Z,15.75
2023-01-22T07:46:39.981Z,13.27
2023-01-22T07:49:07.548Z,16.02
2023-01-22T07:51:35.112Z,15.07
2023-01-22T07:54:03.327Z,14.45
2023-01-22T07:56:30.678Z,13.27
2023-01-22T07:58:57.859Z,12.27
2023-01-22T08:01:25.613Z,13.52
2023-01-22T08:03:52.926Z,14.48
2023-01-22T08:06:21.229Z,12.68
2023-01-22T08:08:48.690Z,19.23
2023-01-22T08:11:16.380Z,13.25
2023-01-22T08:13:43.516Z,12.50
2023-01-22T08:16:10.962Z,15.48
2023-01-22T08:18:38.304Z,12.82
2023-01-22T08:21:06.092Z,14.00
2023-01-22T08:23:33.642Z,11.60
2023-01-22T08:26:04.225Z,15.38
2023-01-22T08:28:31.925Z,15.35
2023-01-22T08:31:02.062Z,13.50
2023-01-22T08:33:31.556Z,12.50
2023-01-22T08:35:58.982Z,12.75
2023-01-22T08:38:26.344Z,14.65
2023-01-22T08:40:54.158Z,12.88
2023-01-22T08:43:21.721Z,14.90
2023-01-22T08:45:50.032Z,12.48
2023-01-22T08:48:18.185Z,13.05
2023-01-22T08:50:45.605Z,14.98
2023-01-22T08:53:12.899Z,13.57
2023-01-22T08:55:40.375Z,12.20
2023-01-22T08:58:08.075Z,14.18
2023-01-22T09:00:35.541Z,11.98
2023-01-22T09:03:02.799Z,12.48
2023-01-22T09:05:30.291Z,22.85
2023-01-22T09:07:57.566Z,15.75
2023-01-22T09:10:25.217Z,13.73
2023-01-22T09:12:52.750Z,13.82
2023-01-22T09:15:20.049Z,13.70
2023-01-22T09:17:47.403Z,10.07
2023-01-22T09:20:15.020Z,45.85
2023-01-22T09:22:45.805Z,35.10
2023-01-22T09:25:13.636Z,18.40
2023-01-22T09:27:41.095Z,14.48
2023-01-22T09:30:09.887Z,18.42
2023-01-22T09:32:37.316Z,8.18
2023-01-22T09:35:04.834Z,9.10
2023-01-22T09:37:32.311Z,9.07
2023-01-22T09:39:59.760Z,9.10
2023-01-22T09:42:32.480Z,11.75
2023-01-22T09:45:05.854Z,9.32
2023-01-22T09:47:40.458Z,9.68
2023-01-22T09:50:26.115Z,9.80
2023-01-22T09:52:56.356Z,9.65
2023-01-22T09:55:27.539Z,8.10
2023-01-22T09:57:56.887Z,8.23
2023-01-22T10:00:35.665Z,8.55
2023-01-22T10:03:13.483Z,8.63
2023-01-22T10:05:44.917Z,8.93
2023-01-22T10:08:17.156Z,10.43
2023-01-22T10:10:44.586Z,11.15
2023-01-22T10:13:33.678Z,14.45
2023-01-22T10:16:01.758Z,14.20
2023-01-22T10:19:09.025Z,13.73
2023-01-22T10:21:59.461Z,10.82
2023-01-22T10:24:27.593Z,10.98
2023-01-22T10:26:59.342Z,12.25
2023-01-22T10:29:33.905Z,11.85
2023-01-22T10:32:20.636Z,12.60
2023-01-22T10:35:16.507Z,11.98
2023-01-22T10:37:47.099Z,11.82
2023-01-22T10:40:23.352Z,11.35
2023-01-22T10:43:11.822Z,11.70
2023-01-22T10:45:40.181Z,13.00
2023-01-22T10:48:17.358Z,11.40
2023-01-22T10:50:45.731Z,11.32
2023-01-22T10:53:29.493Z,12.95
2023-01-22T10:55:59.352Z,11.20
2023-01-22T10:58:33.750Z,11.25
2023-01-22T11:03:34.201Z,11.48
2023-01-22T11:06:24.523Z,11.65
2023-01-22T11:09:16.091Z,11.45
2023-01-22T11:11:48.699Z,11.20
2023-01-22T11:14:21.909Z,9.30
2023-01-22T11:16:52.804Z,8.23
2023-01-22T11:19:36.283Z,8.70
2023-01-22T11:22:15.164Z,9.77
2023-01-22T11:24:47.837Z,10.80
2023-01-22T11:27:29.539Z,9.57
2023-01-22T11:30:21.578Z,11.85
2023-01-22T11:32:56.649Z,9.75
2023-01-22T11:35:47.375Z,9.75
2023-01-22T11:38:25.662Z,9.55
2023-01-22T11:41:07.611Z,9.02
2023-01-22T11:43:41.131Z,9.05
2023-01-22T11:46:28.297Z,9.00
2023-01-22T11:49:09.004Z,9.93
2023-01-22T11:51:56.171Z,11.35
2023-01-22T11:54:44.456Z,12.50
2023-01-22T11:57:37.746Z,9.07
2023-01-22T12:00:24.769Z,9.20
2023-01-22T12:03:11.978Z,8.15
2023-01-22T12:05:39.611Z,5.95
2023-01-22T12:08:26.800Z,6.70
2023-01-22T12:10:57.524Z,6.95
2023-01-22T12:13:26.901Z,8.75
2023-01-22T12:16:17.714Z,6.80
2023-01-22T12:19:08.904Z,7.57
2023-01-22T12:21:47.603Z,6.05
2023-01-22T12:24:29.566Z,6.13
2023-01-22T12:27:03.083Z,8.52
2023-01-22T12:29:35.465Z,7.00
2023-01-22T12:32:10.972Z,6.65
2023-01-22T12:34:41.489Z,9.57
2023-01-22T12:37:15.094Z,6.93
2023-01-22T12:40:01.603Z,7.82
2023-01-22T12:42:56.563Z,8.88
2023-01-22T12:45:29.880Z,9.38
2023-01-22T12:48:17.133Z,10.32
2023-01-22T12:50:56.226Z,10.07
2023-01-22T12:53:28.529Z,12.75
2023-01-22T12:56:11.934Z,9.30
2023-01-22T12:58:41.710Z,10.07
2023-01-22T13:01:10.350Z,9.73
2023-01-22T13:03:39.680Z,9.88
2023-01-22T13:06:20.753Z,10.40
2023-01-22T13:08:48.316Z,11.30
2023-01-22T13:11:35.437Z,9.82
2023-01-22T13:14:24.827Z,7.70
2023-01-22T13:17:00.643Z,7.38
2023-01-22T13:19:32.392Z,8.05
2023-01-22T13:22:01.226Z,8.52
2023-01-22T13:24:29.112Z,7.30
2023-01-22T13:27:00.515Z,7.43
2023-01-22T13:29:33.177Z,6.95
2023-01-22T13:32:05.379Z,7.75
2023-01-22T13:34:33.292Z,7.03
2023-01-22T13:37:00.687Z,9.80
2023-01-22T13:39:31.245Z,8.70
2023-01-22T13:42:02.158Z,6.70
2023-01-22T13:44:36.268Z,7.70
2023-01-22T13:47:04.721Z,7.57
2023-01-22T13:49:35.258Z,10.63
2023-01-22T13:52:06.451Z,7.85
2023-01-22T13:54:43.837Z,7.95
2023-01-22T13:57:13.976Z,7.65
2023-01-22T13:59:51.799Z,8.40
2023-01-22T14:02:30.030Z,8.10
2023-01-22T14:04:57.784Z,8.27
2023-01-22T14:07:30.736Z,7.63
2023-01-22T14:10:14.206Z,9.43
2023-01-22T14:12:41.693Z,7.07
2023-01-22T14:15:19.436Z,6.40
2023-01-22T14:17:49.719Z,6.07
2023-01-22T14:20:18.488Z,7.40
2023-01-22T14:22:46.155Z,6.82
2023-01-22T14:25:13.707Z,8.00
2023-01-22T14:27:44.375Z,6.78
2023-01-22T14:30:15.169Z,5.93
2023-01-22T14:32:43.688Z,7.63
2023-01-22T14:35:20.710Z,8.13
2023-01-22T14:37:48.263Z,7.78
2023-01-22T14:40:17.793Z,7.63
2023-01-22T14:42:46.988Z,8.52
2023-01-22T14:45:16.727Z,7.32
2023-01-22T14:47:44.134Z,10.73
2023-01-22T14:50:11.916Z,8.45
2023-01-22T14:52:39.815Z,8.57
2023-01-22T14:55:07.252Z,10.77
2023-01-22T14:57:35.147Z,10.32
2023-01-22T15:00:05.088Z,8.73
2023-01-22T15:02:33.058Z,10.05
2023-01-22T15:05:00.691Z,8.48
2023-01-22T15:07:27.942Z,10.20
2023-01-22T15:09:55.422Z,8.15
2023-01-22T15:12:23.490Z,10.75
2023-01-22T15:14:51.026Z,10.10
2023-01-22T15:17:18.489Z,9.68
2023-01-22T15:19:46.103Z,9.35
2023-01-22T15:22:14.914Z,12.07
2023-01-22T15:24:44.177Z,11.57
2023-01-22T15:27:12.147Z,10.65
2023-01-22T15:29:39.738Z,11.80
2023-01-22T15:32:07.391Z,14.50
2023-01-22T15:34:34.992Z,16.30
2023-01-22T15:37:03.884Z,15.40
2023-01-22T15:39:31.290Z,14.80
2023-01-22T15:41:58.712Z,14.25
2023-01-22T15:44:26.400Z,14.90
2023-01-22T15:46:54.197Z,13.40
2023-01-22T15:49:21.827Z,11.80
2023-01-22T15:51:49.264Z,11.88
2023-01-22T15:54:16.771Z,10.50
2023-01-22T15:56:44.207Z,9.80
2023-01-22T15:59:12.587Z,11.35
2023-01-22T16:01:40.729Z,13.23
2023-01-22T16:04:09.929Z,11.98
2023-01-22T16:06:37.600Z,15.10
2023-01-22T16:09:07.518Z,14.13
2023-01-22T16:11:35.773Z,15.05
2023-01-22T16:14:03.688Z,11.63
2023-01-22T16:16:35.308Z,14.30
2023-01-22T16:19:05.390Z,13.52
2023-01-22T16:21:33.078Z,15.20
2023-01-22T16:24:02.069Z,15.73
2023-01-22T16:26:32.390Z,16.65
2023-01-22T16:29:02.711Z,15.65
2023-01-22T16:31:32.786Z,13.93
2023-01-22T16:34:09.158Z,15.23
2023-01-22T16:36:37.469Z,17.52
2023-01-22T16:39:05.261Z,17.60
2023-01-22T16:41:35.058Z,18.83
2023-01-22T16:44:08.035Z,15.52
2023-01-22T16:46:38.882Z,17.23
2023-01-22T16:49:10.731Z,15.95
2023-01-22T16:51:40.010Z,16.10
2023-01-22T16:54:08.270Z,16.52
2023-01-22T16:56:36.955Z,17.25
2023-01-22T16:59:04.589Z,14.88
2023-01-22T17:01:32.515Z,16.92
2023-01-22T17:04:00.039Z,16.92
2023-01-22T17:06:32.703Z,17.58
2023-01-22T17:09:00.721Z,16.60
2023-01-22T17:11:28.107Z,16.88
2023-01-22T17:13:55.556Z,15.95
2023-01-22T17:16:23.122Z,16.17
2023-01-22T17:18:51.006Z,20.95
2023-01-22T17:21:19.562Z,21.85
2023-01-22T17:23:47.181Z,23.83
2023-01-22T17:26:16.287Z,20.10
2023-01-22T17:28:44.253Z,21.23
2023-01-22T17:31:17.129Z,22.38
2023-01-22T17:33:45.224Z,21.08
2023-01-22T17:36:15.488Z,19.23
2023-01-22T17:38:43.792Z,19.52
2023-01-22T17:41:15.141Z,18.50
2023-01-22T17:43:45.606Z,17.52
2023-01-22T17:46:16.885Z,21.75
2023-01-22T17:48:46.041Z,20.13
2023-01-22T17:51:16.995Z,19.02
2023-01-22T17:53:46.213Z,26.95
2023-01-22T17:56:18.561Z,24.17
2023-01-22T17:58:50.521Z,25.15
2023-01-22T18:01:20.275Z,22.70
2023-01-22T18:03:48.327Z,24.30
2023-01-22T18:06:17.246Z,22.60
2023-01-22T18:08:44.892Z,29.75
2023-01-22T18:11:15.168Z,33.13
2023-01-22T18:13:43.065Z,25.13
2023-01-22T18:16:12.777Z,25.88
2023-01-22T18:18:40.465Z,27.90
2023-01-22T18:21:11.811Z,27.02
2023-01-22T18:23:39.307Z,30.13
2023-01-22T18:26:07.677Z,22.58
2023-01-22T18:28:35.909Z,25.52
2023-01-22T18:31:07.617Z,22.42
2023-01-22T18:33:37.724Z,22.42
2023-01-22T18:36:08.842Z,20.00
2023-01-22T18:38:37.346Z,19.33
2023-01-22T18:41:11.130Z,17.48
2023-01-22T18:43:39.157Z,20.25
2023-01-22T18:46:09.149Z,24.60
2023-01-22T18:48:37.622Z,20.88
2023-01-22T18:51:06.143Z,19.77
2023-01-22T18:53:35.645Z,20.00
2023-01-22T18:56:06.046Z,20.92
2023-01-22T18:58:34.475Z,24.08
2023-01-22T19:01:17.718Z,21.83
2023-01-22T19:03:48.061Z,21.77
2023-01-22T19:06:17.811Z,20.98
2023-01-22T19:08:48.595Z,19.15
2023-01-22T19:11:17.140Z,18.70
2023-01-22T19:13:45.997Z,20.17
2023-01-22T19:16:16.568Z,21.95
2023-01-22T19:18:47.127Z,26.05
2023-01-22T19:21:17.721Z,24.10
2023-01-22T19:23:47.303Z,22.42
2023-01-22T19:26:19.122Z,25.52
2023-01-22T19:28:47.511Z,26.45
2023-01-22T19:31:18.817Z,22.70
2023-01-22T19:33:47.612Z,22.27
2023-01-22T19:37:06.653Z,24.48
2023-01-22T19:39:34.865Z,24.80
2023-01-22T19:42:05.246Z,24.42
2023-01-22T19:44:34.363Z,24.33
2023-01-22T19:47:02.617Z,22.00
2023-01-22T19:49:30.273Z,22.08
2023-01-22T19:51:58.100Z,22.75
2023-01-22T19:54:25.707Z,21.77
2023-01-22T19:56:53.487Z,24.95
2023-01-22T19:59:24.050Z,27.17
2023-01-22T20:01:52.755Z,26.63
2023-01-22T20:04:25.078Z,27.17
2023-01-22T20:06:57.289Z,26.80
2023-01-22T20:09:24.775Z,26.58
2023-01-22T20:11:54.182Z,27.42
2023-01-22T20:14:24.543Z,26.30
2023-01-22T20:16:52.017Z,28.52
2023-01-22T20:19:19.540Z,26.73
2023-01-22T20:21:47.059Z,24.90
2023-01-22T20:24:14.440Z,25.95
2023-01-22T20:26:41.608Z,27.20
2023-01-22T20:29:08.772Z,28.00
2023-01-22T20:31:35.881Z,27.02
2023-01-22T20:34:04.954Z,27.38
2023-01-22T20:36:32.831Z,28.35
2023-01-22T20:39:02.005Z,24.50
2023-01-22T20:41:31.065Z,24.10
2023-01-22T20:43:58.383Z,24.05
2023-01-22T20:46:27.186Z,17.92
2023-01-22T20:48:58.166Z,18.50
2023-01-22T20:51:28.917Z,18.88
2023-01-22T20:53:57.412Z,20.50
2023-01-22T20:56:30.462Z,20.52
2023-01-22T20:59:00.825Z,20.05
2023-01-22T21:01:29.409Z,20.25
2023-01-22T21:03:58.345Z,21.05
2023-01-22T21:06:29.113Z,21.08
2023-01-22T21:08:59.327Z,20.75
2023-01-22T21:11:28.715Z,22.02
2023-01-22T21:13:57.640Z,17.45
2023-01-22T21:16:30.036Z,20.10
2023-01-22T21:19:00.775Z,17.83
2023-01-22T21:21:29.518Z,18.48
2023-01-22T21:23:58.077Z,15.68
2023-01-22T21:26:27.973Z,15.85
2023-01-22T21:28:58.478Z,15.23
2023-01-22T21:31:26.774Z,15.75
2023-01-22T21:34:02.938Z,15.43
2023-01-22T21:36:40.751Z,15.40
2023-01-22T21:39:14.237Z,16.30
2023-01-22T21:41:41.978Z,14.07
2023-01-22T21:44:32.968Z,15.63
2023-01-22T21:47:00.601Z,17.48
2023-01-22T21:49:28.795Z,16.90
2023-01-22T21:52:01.072Z,17.38
2023-01-22T21:54:34.211Z,19.50
2023-01-22T21:57:01.871Z,22.05
2023-01-22T21:59:29.251Z,18.20
2023-01-22T22:01:56.822Z,22.23
2023-01-22T22:04:26.128Z,21.63
2023-01-22T22:06:54.283Z,18.75
2023-01-22T22:09:24.807Z,15.40
2023-01-22T22:11:55.327Z,17.00
2023-01-22T22:14:22.933Z,17.45
2023-01-22T22:16:50.261Z,15.52
2023-01-22T22:19:18.643Z,14.75
2023-01-22T22:21:46.079Z,16.05
2023-01-22T22:24:14.078Z,15.98
2023-01-22T22:26:41.682Z,15.07
2023-01-22T22:29:09.797Z,13.52
2023-01-22T22:31:38.455Z,14.10
2023-01-22T22:34:06.230Z,13.80
2023-01-22T22:36:34.103Z,16.15
2023-01-22T22:39:02.234Z,16.00
2023-01-22T22:41:32.154Z,15.05
2023-01-22T22:43:59.568Z,15.15
2023-01-22T22:46:30.211Z,14.40
2023-01-22T22:48:59.647Z,14.27
2023-01-22T22:51:29.951Z,14.50
2023-01-22T22:53:59.487Z,16.58
2023-01-22T22:56:28.688Z,15.40
2023-01-22T22:58:56.256Z,14.52
2023-01-22T23:01:25.301Z,13.05
2023-01-22T23:03:53.676Z,15.82
2023-01-22T23:06:24.341Z,13.60
2023-01-22T23:08:54.227Z,16.60
2023-01-22T23:11:25.513Z,19.73
2023-01-22T23:13:53.544Z,16.85
2023-01-22T23:16:23.161Z,15.63
2023-01-22T23:18:52.038Z,14.70
2023-01-22T23:21:21.987Z,17.58
2023-01-22T23:23:50.633Z,14.60
2023-01-22T23:26:23.045Z,16.05
2023-01-22T23:28:52.388Z,14.30
2023-01-22T23:31:19.899Z,16.77
2023-01-22T23:33:47.160Z,15.63
2023-01-22T23:36:17.534Z,16.10
2023-01-22T23:38:45.411Z,18.10
2023-01-22T23:41:15.025Z,17.75
2023-01-22T23:43:43.326Z,19.05
2023-01-22T23:46:13.779Z,18.55
2023-01-22T23:48:41.257Z,16.38
2023-01-22T23:51:11.407Z,17.38
2023-01-22T23:53:40.424Z,15.52
2023-01-22T23:56:10.016Z,18.63
2023-01-22T23:58:37.480Z,16.45
